Time;durP1;ratioP1;P1;durP2;ratioP2;P2;SDS_P1;SDS_P2;PMS_P1;PMS_P2;Temp;Humidity;BMP_temperature;BMP_pressure;BME280_temperature;BME280_humidity;BME280_pressure;Samples;Min_cycle;Max_cycle;Signal;HPM_P1;HPM_P2
2023/06/15 00:00:28;;;;;;;;;;;21.60;88.70;;;;;;5121093;28;19941;-42
2023/06/15 00:02:54;;;;;;;;;;;21.70;88.70;;;;;;5120731;28;19943;-42
2023/06/15 00:05:20;;;;;;;;;;;21.70;88.70;;;;;;5121025;28;20052;-44
2023/06/15 00:07:46;;;;;;;;;;;21.70;88.70;;;;;;5120408;28;19915;-42
2023/06/15 00:10:11;;;;;;;;;;;21.70;88.70;;;;;;5120374;28;19907;-45
2023/06/15 00:12:37;;;;;;;;;;;21.60;88.70;;;;;;5116959;28;19908;-43
2023/06/15 00:15:02;;;;;;;;;;;21.70;88.70;;;;;;5117375;28;19908;-42
2023/06/15 00:17:29;;;;;;;;;;;21.70;88.70;;;;;;5117370;28;20081;-45
2023/06/15 00:19:57;;;;;;;;;;;21.60;88.70;;;;;;5117372;28;19908;-42
2023/06/15 00:22:26;;;;;;;;;;;21.70;88.70;;;;;;5116981;28;20413;-43
2023/06/15 00:24:52;;;;;;;;;;;21.70;88.80;;;;;;5117218;28;20034;-44
2023/06/15 00:27:18;;;;;;;;;;;21.60;88.80;;;;;;5117210;28;19908;-43
2023/06/15 00:29:43;;;;;;;;;;;21.60;88.80;;;;;;5117238;28;19908;-43
2023/06/15 00:32:08;;;;;;;;;;;21.60;88.70;;;;;;5117108;28;19989;-46
2023/06/15 00:34:34;;;;;;;;;;;21.70;88.80;;;;;;5117357;28;20350;-45
2023/06/15 00:36:59;;;;;;;;;;;21.70;88.80;;;;;;5117005;28;19912;-43
2023/06/15 00:39:25;;;;;;;;;;;21.70;88.80;;;;;;5117029;28;20381;-46
2023/06/15 00:41:50;;;;;;;;;;;21.60;88.80;;;;;;5116932;28;19908;-43
2023/06/15 00:44:16;;;;;;;;;;;21.60;89.30;;;;;;5117021;28;19969;-44
2023/06/15 00:46:41;;;;;;;;;;;21.60;88.80;;;;;;5116725;28;20255;-44
2023/06/15 00:49:07;;;;;;;;;;;21.60;88.80;;;;;;5116810;28;19914;-43
2023/06/15 00:51:34;;;;;;;;;;;21.70;88.90;;;;;;5116467;28;19908;-45
2023/06/15 00:54:00;;;;;;;;;;;21.70;88.90;;;;;;5117007;28;19915;-42
2023/06/15 00:56:29;;;;;;;;;;;21.60;88.80;;;;;;5116589;28;20343;-42
2023/06/15 00:58:55;;;;;;;;;;;21.60;88.80;;;;;;5116587;28;20385;-43
2023/06/15 01:01:20;;;;;;;;;;;21.60;88.70;;;;;;5116617;28;19953;-46
2023/06/15 01:03:46;;;;;;;;;;;21.60;88.60;;;;;;5116218;28;19912;-43
2023/06/15 01:06:16;;;;;;;;;;;21.60;88.60;;;;;;5116448;28;20354;-43
2023/06/15 01:08:44;;;;;;;;;;;21.60;88.50;;;;;;5116369;28;19907;-44
2023/06/15 01:11:09;;;;;;;;;;;21.60;88.50;;;;;;5116055;28;19955;-43
2023/06/15 01:13:35;;;;;;;;;;;21.60;88.40;;;;;;5116309;28;19943;-43
2023/06/15 01:16:02;;;;;;;;;;;21.60;88.30;;;;;;5116372;28;19918;-46
2023/06/15 01:18:29;;;;;;;;;;;21.60;88.20;;;;;;5116185;28;19912;-43
2023/06/15 01:20:56;;;;;;;;;;;21.60;88.20;;;;;;5116174;28;20014;-44
2023/06/15 01:23:25;;;;;;;;;;;21.60;88.40;;;;;;5115536;28;20319;-49
2023/06/15 01:25:55;;;;;;;;;;;21.60;88.40;;;;;;5116289;28;19960;-43
2023/06/15 01:28:21;;;;;;;;;;;21.60;88.40;;;;;;5115634;28;19912;-45
2023/06/15 01:30:47;;;;;;;;;;;21.60;88.50;;;;;;5115655;28;20002;-42
2023/06/15 01:33:14;;;;;;;;;;;21.60;88.60;;;;;;5115922;28;20020;-42
2023/06/15 01:35:39;;;;;;;;;;;21.60;88.70;;;;;;5097471;28;19916;-44
2023/06/15 01:38:05;;;;;;;;;;;21.60;88.70;;;;;;5115794;28;20010;-42
2023/06/15 01:40:32;;;;;;;;;;;21.60;88.80;;;;;;5115787;28;19915;-43
2023/06/15 01:42:58;;;;;;;;;;;21.60;88.80;;;;;;5115456;28;19911;-42
2023/06/15 01:45:24;;;;;;;;;;;21.60;88.80;;;;;;5115378;28;20358;-43
2023/06/15 01:47:50;;;;;;;;;;;21.60;88.80;;;;;;5115119;28;19919;-42
2023/06/15 01:50:17;;;;;;;;;;;21.60;88.80;;;;;;5115487;28;19915;-45
2023/06/15 01:52:43;;;;;;;;;;;21.60;88.80;;;;;;5115185;28;19912;-43
2023/06/15 01:55:09;;;;;;;;;;;21.60;88.50;;;;;;5115125;28;19907;-43
2023/06/15 01:57:38;;;;;;;;;;;21.60;88.50;;;;;;5115179;28;19916;-43
2023/06/15 02:00:08;;;;;;;;;;;21.60;88.60;;;;;;5097221;28;19908;-43
2023/06/15 02:02:33;;;;;;;;;;;21.60;88.70;;;;;;5115883;28;19947;-43
2023/06/15 02:04:59;;;;;;;;;;;21.60;88.70;;;;;;5115276;28;19915;-42
2023/06/15 02:07:24;;;;;;;;;;;21.60;88.70;;;;;;5115231;28;19908;-42
2023/06/15 02:09:51;;;;;;;;;;;21.60;88.80;;;;;;5115045;28;19994;-44
2023/06/15 02:12:17;;;;;;;;;;;21.60;88.80;;;;;;5114964;28;19912;-43
2023/06/15 02:14:42;;;;;;;;;;;21.60;88.90;;;;;;5096966;28;19914;-44
2023/06/15 02:17:08;;;;;;;;;;;21.60;88.90;;;;;;5115007;28;19915;-42
2023/06/15 02:19:33;;;;;;;;;;;21.60;88.80;;;;;;5114854;28;20377;-46
2023/06/15 02:22:00;;;;;;;;;;;21.60;88.80;;;;;;5114996;28;19914;-42
2023/06/15 02:24:25;;;;;;;;;;;21.60;88.80;;;;;;5114670;28;19907;-43
2023/06/15 02:26:51;;;;;;;;;;;21.60;88.80;;;;;;5114641;28;19908;-48
2023/06/15 02:29:16;;;;;;;;;;;21.60;88.90;;;;;;5114953;28;19957;-43
2023/06/15 02:31:42;;;;;;;;;;;21.60;88.90;;;;;;5114929;28;19998;-43
2023/06/15 02:34:07;;;;;;;;;;;21.60;88.90;;;;;;5114155;28;19912;-42
2023/06/15 02:36:34;;;;;;;;;;;21.60;88.90;;;;;;5114376;28;19912;-43
2023/06/15 02:39:00;;;;;;;;;;;21.60;88.90;;;;;;5114789;28;20247;-43
2023/06/15 02:41:26;;;;;;;;;;;21.60;88.90;;;;;;5114452;28;20263;-42
2023/06/15 02:43:52;;;;;;;;;;;21.60;88.90;;;;;;5114672;28;19908;-42
2023/06/15 02:46:17;;;;;;;;;;;21.60;88.90;;;;;;5114618;28;19908;-43
2023/06/15 02:48:44;;;;;;;;;;;21.60;88.90;;;;;;5114813;28;19920;-44
2023/06/15 02:51:10;;;;;;;;;;;21.60;88.90;;;;;;5114362;28;19960;-43
2023/06/15 02:53:35;;;;;;;;;;;21.60;88.90;;;;;;5114516;28;19912;-46
2023/06/15 02:56:02;;;;;;;;;;;21.60;88.90;;;;;;5114153;28;19916;-42
2023/06/15 02:58:32;;;;;;;;;;;21.60;89.00;;;;;;5114818;28;19958;-45
2023/06/15 03:01:00;;;;;;;;;;;21.60;88.80;;;;;;5114434;28;19962;-43
2023/06/15 03:03:27;;;;;;;;;;;21.50;88.90;;;;;;5114809;28;20002;-45
2023/06/15 03:05:54;;;;;;;;;;;21.60;89.00;;;;;;5114171;28;20393;-42
2023/06/15 03:08:20;;;;;;;;;;;21.50;88.90;;;;;;5114150;28;19915;-45
2023/06/15 03:10:45;;;;;;;;;;;21.60;88.80;;;;;;5114339;28;19915;-47
2023/06/15 03:13:11;;;;;;;;;;;21.60;88.90;;;;;;5114640;28;19908;-42
2023/06/15 03:15:37;;;;;;;;;;;21.50;88.70;;;;;;5114267;28;19965;-44
2023/06/15 03:18:04;;;;;;;;;;;21.50;88.80;;;;;;5114336;28;19934;-45
2023/06/15 03:20:32;;;;;;;;;;;21.60;88.90;;;;;;5113966;28;19933;-42
2023/06/15 03:22:58;;;;;;;;;;;21.60;89.00;;;;;;5114258;28;19986;-42
2023/06/15 03:25:25;;;;;;;;;;;21.50;88.90;;;;;;5113945;28;19908;-44
2023/06/15 03:27:53;;;;;;;;;;;21.50;88.90;;;;;;5095993;28;19930;-42
2023/06/15 03:30:19;;;;;;;;;;;21.60;88.80;;;;;;5114256;28;19947;-44
2023/06/15 03:32:46;;;;;;;;;;;21.50;88.50;;;;;;5095970;28;19954;-43
2023/06/15 03:35:12;;;;;;;;;;;21.50;88.60;;;;;;5114073;28;20278;-43
2023/06/15 03:37:38;;;;;;;;;;;21.50;88.60;;;;;;5113806;28;19965;-45
2023/06/15 03:40:05;;;;;;;;;;;21.60;88.80;;;;;;5114250;28;20335;-42
2023/06/15 03:42:31;;;;;;;;;;;21.60;88.70;;;;;;5113743;28;19908;-46
2023/06/15 03:44:56;;;;;;;;;;;21.60;88.80;;;;;;5113765;28;20320;-42
2023/06/15 03:47:22;;;;;;;;;;;21.50;88.70;;;;;;5115470;28;19926;-42
2023/06/15 03:49:47;;;;;;;;;;;21.60;88.70;;;;;;5117886;28;19908;-43
2023/06/15 03:52:13;;;;;;;;;;;21.50;88.70;;;;;;5117800;28;19907;-43
2023/06/15 03:54:38;;;;;;;;;;;21.60;88.80;;;;;;5117963;28;19964;-46
2023/06/15 03:57:04;;;;;;;;;;;21.60;89.50;;;;;;5117737;28;20373;-43
2023/06/15 03:59:29;;;;;;;;;;;21.50;88.90;;;;;;5117331;28;20344;-43
2023/06/15 04:01:55;;;;;;;;;;;21.60;89.00;;;;;;5117744;28;19914;-45
2023/06/15 04:04:20;;;;;;;;;;;21.60;89.00;;;;;;5117607;28;20328;-42
2023/06/15 04:06:47;;;;;;;;;;;21.60;89.00;;;;;;5117539;28;19947;-46
2023/06/15 04:09:14;;;;;;;;;;;21.60;89.00;;;;;;5117840;28;19940;-43
2023/06/15 04:11:39;;;;;;;;;;;21.60;89.00;;;;;;5117111;28;20382;-43
2023/06/15 04:14:05;;;;;;;;;;;21.60;89.00;;;;;;5117321;28;19915;-49
2023/06/15 04:16:30;;;;;;;;;;;21.60;89.00;;;;;;5117326;28;19934;-42
2023/06/15 04:18:57;;;;;;;;;;;21.60;89.10;;;;;;5117058;28;19916;-43
2023/06/15 04:21:22;;;;;;;;;;;21.60;89.10;;;;;;5117230;28;19994;-47
2023/06/15 04:23:48;;;;;;;;;;;21.60;89.10;;;;;;5117547;28;19918;-45
2023/06/15 04:26:13;;;;;;;;;;;21.60;89.10;;;;;;5117179;28;19968;-43
2023/06/15 04:28:39;;;;;;;;;;;21.60;89.10;;;;;;5117118;28;19908;-45
2023/06/15 04:31:06;;;;;;;;;;;21.60;89.10;;;;;;5116753;28;19914;-43
2023/06/15 04:33:32;;;;;;;;;;;21.60;89.10;;;;;;5116831;28;19914;-42
2023/06/15 04:35:57;;;;;;;;;;;21.60;89.10;;;;;;5116854;28;19912;-43
2023/06/15 04:38:23;;;;;;;;;;;21.60;89.00;;;;;;5116647;28;19919;-44
2023/06/15 04:40:48;;;;;;;;;;;21.60;89.00;;;;;;5116563;28;19908;-44
2023/06/15 04:43:14;;;;;;;;;;;21.60;89.00;;;;;;5116734;28;19914;-47
2023/06/15 04:45:39;;;;;;;;;;;21.60;89.00;;;;;;5116740;28;19952;-45
2023/06/15 04:48:06;;;;;;;;;;;21.60;89.00;;;;;;5116622;28;19927;-47
2023/06/15 04:50:32;;;;;;;;;;;21.60;89.00;;;;;;5116260;28;20002;-44
2023/06/15 04:52:58;;;;;;;;;;;21.60;89.00;;;;;;5098310;28;19962;-45
2023/06/15 04:55:23;;;;;;;;;;;21.60;89.00;;;;;;5116281;28;20311;-43
2023/06/15 04:57:49;;;;;;;;;;;21.60;89.00;;;;;;5115490;28;19912;-45
2023/06/15 05:00:15;;;;;;;;;;;21.60;89.00;;;;;;5115929;28;19908;-44
2023/06/15 05:02:40;;;;;;;;;;;21.60;89.00;;;;;;5116256;28;19986;-44
2023/06/15 05:05:06;;;;;;;;;;;21.60;89.00;;;;;;5116566;28;19912;-44
2023/06/15 05:07:31;;;;;;;;;;;21.60;89.00;;;;;;5115863;28;19908;-46
2023/06/15 05:09:57;;;;;;;;;;;21.60;89.00;;;;;;5115811;28;19915;-43
2023/06/15 05:12:22;;;;;;;;;;;21.60;89.00;;;;;;5115835;28;19939;-45
2023/06/15 05:14:48;;;;;;;;;;;21.60;89.00;;;;;;5115707;28;19998;-49
2023/06/15 05:17:13;;;;;;;;;;;21.60;89.00;;;;;;5115989;28;19915;-43
2023/06/15 05:19:39;;;;;;;;;;;21.60;89.00;;;;;;5115815;28;20360;-45
2023/06/15 05:22:05;;;;;;;;;;;21.60;89.00;;;;;;5097530;28;19908;-45
2023/06/15 05:24:30;;;;;;;;;;;21.60;89.00;;;;;;5115895;28;19907;-44
2023/06/15 05:26:56;;;;;;;;;;;21.60;89.00;;;;;;5115599;28;19908;-43
2023/06/15 05:29:22;;;;;;;;;;;21.60;89.00;;;;;;5115591;28;19916;-43
2023/06/15 05:31:47;;;;;;;;;;;21.60;89.00;;;;;;5115665;28;19915;-45
2023/06/15 05:34:13;;;;;;;;;;;21.60;89.00;;;;;;5115460;28;20271;-48
2023/06/15 05:36:38;;;;;;;;;;;21.60;89.00;;;;;;5115262;28;20487;-45
2023/06/15 05:39:04;;;;;;;;;;;21.60;89.00;;;;;;5115533;28;19919;-47
2023/06/15 05:41:30;;;;;;;;;;;21.60;89.50;;;;;;5115382;28;19924;-44
2023/06/15 05:43:55;;;;;;;;;;;21.60;89.00;;;;;;5115164;28;19907;-45
2023/06/15 05:46:21;;;;;;;;;;;21.60;89.00;;;;;;5115243;28;19908;-45
2023/06/15 05:48:46;;;;;;;;;;;21.70;89.10;;;;;;5115386;28;19925;-43
2023/06/15 05:51:12;;;;;;;;;;;21.70;89.10;;;;;;5115137;28;19908;-43
2023/06/15 05:53:37;;;;;;;;;;;21.70;89.10;;;;;;5114813;28;20255;-45
2023/06/15 05:56:05;;;;;;;;;;;21.70;89.10;;;;;;5114951;28;20018;-46
2023/06/15 05:58:31;;;;;;;;;;;21.70;89.10;;;;;;5114622;28;19919;-45
2023/06/15 06:00:56;;;;;;;;;;;21.60;89.00;;;;;;5114696;28;19911;-44
2023/06/15 06:03:22;;;;;;;;;;;21.70;89.10;;;;;;5114563;28;19908;-43
2023/06/15 06:05:47;;;;;;;;;;;21.70;89.10;;;;;;5114931;28;19907;-46
2023/06/15 06:08:13;;;;;;;;;;;21.60;89.10;;;;;;5096639;28;19908;-44
2023/06/15 06:10:39;;;;;;;;;;;21.70;89.10;;;;;;5113840;28;19962;-44
2023/06/15 06:13:05;;;;;;;;;;;21.70;89.20;;;;;;5114652;28;19960;-44
2023/06/15 06:15:30;;;;;;;;;;;21.70;89.20;;;;;;5114430;28;20254;-44
2023/06/15 06:17:56;;;;;;;;;;;21.70;89.20;;;;;;5114969;28;19911;-45
2023/06/15 06:20:21;;;;;;;;;;;21.60;89.10;;;;;;5114247;28;19968;-45
2023/06/15 06:22:47;;;;;;;;;;;21.70;89.10;;;;;;5114414;28;19908;-44
2023/06/15 06:25:12;;;;;;;;;;;21.70;89.20;;;;;;5096074;28;19947;-44
2023/06/15 06:27:38;;;;;;;;;;;21.70;89.20;;;;;;5114657;28;19908;-44
2023/06/15 06:30:03;;;;;;;;;;;21.70;89.20;;;;;;5114857;28;20319;-44
2023/06/15 06:32:29;;;;;;;;;;;21.70;89.20;;;;;;5114294;28;19908;-45
2023/06/15 06:34:54;;;;;;;;;;;21.70;89.70;;;;;;5114496;28;19912;-43
2023/06/15 06:37:20;;;;;;;;;;;21.70;89.20;;;;;;5114072;28;19965;-44
2023/06/15 06:39:45;;;;;;;;;;;21.70;89.20;;;;;;5114316;28;19934;-45
2023/06/15 06:42:11;;;;;;;;;;;21.70;89.20;;;;;;5114326;28;20034;-46
2023/06/15 06:44:37;;;;;;;;;;;21.70;89.20;;;;;;5114466;28;19912;-44
2023/06/15 06:47:03;;;;;;;;;;;21.70;89.20;;;;;;5114155;28;19919;-45
2023/06/15 06:49:29;;;;;;;;;;;21.70;89.70;;;;;;5114523;28;19968;-46
2023/06/15 06:51:54;;;;;;;;;;;21.70;89.20;;;;;;5095900;28;20014;-46
2023/06/15 06:54:20;;;;;;;;;;;21.70;89.20;;;;;;5113977;28;20363;-44
2023/06/15 06:56:46;;;;;;;;;;;21.70;89.20;;;;;;5113999;28;19912;-44
2023/06/15 06:59:12;;;;;;;;;;;21.70;89.20;;;;;;5114428;28;19912;-47
2023/06/15 07:01:37;;;;;;;;;;;21.70;89.20;;;;;;5114240;28;20370;-44
2023/06/15 07:04:03;;;;;;;;;;;21.70;89.20;;;;;;5114112;28;19908;-44
2023/06/15 07:06:28;;;;;;;;;;;21.70;89.20;;;;;;5114389;28;20347;-46
2023/06/15 07:08:54;;;;;;;;;;;21.70;89.70;;;;;;5095828;28;19998;-46
2023/06/15 07:11:19;;;;;;;;;;;21.70;89.20;;;;;;5114181;28;19907;-43
2023/06/15 07:13:45;;;;;;;;;;;21.70;89.20;;;;;;5114351;28;20356;-45
2023/06/15 07:16:11;;;;;;;;;;;21.70;89.20;;;;;;5114084;28;19975;-44
2023/06/15 07:18:36;;;;;;;;;;;21.70;89.20;;;;;;5113910;28;20303;-44
2023/06/15 07:21:02;;;;;;;;;;;21.70;89.20;;;;;;5115274;28;19953;-43
2023/06/15 07:23:28;;;;;;;;;;;21.70;89.10;;;;;;5117961;28;19914;-44
2023/06/15 07:25:54;;;;;;;;;;;21.70;89.10;;;;;;5117815;28;20309;-44
2023/06/15 07:28:20;;;;;;;;;;;21.70;89.10;;;;;;5118101;28;19956;-44
2023/06/15 07:30:49;;;;;;;;;;;21.70;89.10;;;;;;5117987;28;19915;-47
2023/06/15 07:33:15;;;;;;;;;;;21.70;89.10;;;;;;5118111;28;19931;-44
2023/06/15 07:35:40;;;;;;;;;;;21.70;89.10;;;;;;5117439;28;20362;-45
2023/06/15 07:38:06;;;;;;;;;;;21.70;89.10;;;;;;5117878;28;19912;-45
2023/06/15 07:40:31;;;;;;;;;;;21.70;89.10;;;;;;5118165;28;19908;-44
2023/06/15 07:42:57;;;;;;;;;;;21.70;89.10;;;;;;5117582;28;20409;-44
2023/06/15 07:45:22;;;;;;;;;;;21.70;89.10;;;;;;5117751;28;19908;-43
2023/06/15 07:47:48;;;;;;;;;;;21.70;89.70;;;;;;5117619;28;19920;-43
2023/06/15 07:50:13;;;;;;;;;;;21.70;89.10;;;;;;5117646;28;19998;-44
2023/06/15 07:52:38;;;;;;;;;;;21.70;89.40;;;;;;5099630;28;20358;-41
2023/06/15 07:55:05;;;;;;;;;;;21.70;89.10;;;;;;5117688;28;20027;-43
2023/06/15 07:57:30;;;;;;;;;;;21.70;88.90;;;;;;5117141;28;20461;-44
2023/06/15 07:59:57;;;;;;;;;;;21.70;88.70;;;;;;5117234;28;19939;-44
2023/06/15 08:02:23;;;;;;;;;;;21.70;88.20;;;;;;5117594;28;19908;-46
2023/06/15 08:04:48;;;;;;;;;;;21.70;88.00;;;;;;5117149;28;19915;-44
2023/06/15 08:07:14;;;;;;;;;;;21.70;87.90;;;;;;5117291;28;19915;-44
2023/06/15 08:09:39;;;;;;;;;;;21.70;88.00;;;;;;5117584;28;20006;-43
2023/06/15 08:12:05;;;;;;;;;;;21.70;88.10;;;;;;5117219;28;19911;-43
2023/06/15 08:14:30;;;;;;;;;;;21.70;88.40;;;;;;5117291;28;20262;-42
2023/06/15 08:16:56;;;;;;;;;;;21.70;88.50;;;;;;5116863;28;20030;-42
2023/06/15 08:19:21;;;;;;;;;;;21.70;88.40;;;;;;5117237;28;19912;-45
2023/06/15 08:21:47;;;;;;;;;;;21.70;88.00;;;;;;5117094;28;19912;-43
2023/06/15 08:24:12;;;;;;;;;;;21.70;87.70;;;;;;5116890;28;19953;-45
2023/06/15 08:26:38;;;;;;;;;;;21.70;87.50;;;;;;5116935;28;19908;-43
2023/06/15 08:29:03;;;;;;;;;;;21.70;87.60;;;;;;5117016;28;19965;-42
2023/06/15 08:31:30;;;;;;;;;;;21.70;88.00;;;;;;5098513;28;19908;-43
2023/06/15 08:33:55;;;;;;;;;;;21.70;88.20;;;;;;5115871;28;19915;-47
2023/06/15 08:36:21;;;;;;;;;;;21.70;88.10;;;;;;5116543;28;19912;-43
2023/06/15 08:38:46;;;;;;;;;;;21.70;88.40;;;;;;5116562;28;20388;-45
2023/06/15 08:41:12;;;;;;;;;;;21.70;88.40;;;;;;5117197;28;19908;-44
2023/06/15 08:43:40;;;;;;;;;;;21.70;88.10;;;;;;5116672;28;19990;-47
2023/06/15 08:46:06;;;;;;;;;;;21.70;87.90;;;;;;5116547;28;19926;-43
2023/06/15 08:48:32;;;;;;;;;;;21.70;87.60;;;;;;5116202;28;19919;-44
2023/06/15 08:50:58;;;;;;;;;;;21.70;87.40;;;;;;5116691;28;19930;-42
2023/06/15 08:53:24;;;;;;;;;;;21.70;87.10;;;;;;5116320;28;19914;-43
2023/06/15 08:55:50;;;;;;;;;;;21.70;86.80;;;;;;5116103;28;19912;-44
2023/06/15 08:58:15;;;;;;;;;;;21.70;87.00;;;;;;5098044;28;19912;-44
2023/06/15 09:00:41;;;;;;;;;;;21.70;86.80;;;;;;5116163;28;20346;-45
2023/06/15 09:03:08;;;;;;;;;;;21.70;87.20;;;;;;5116231;28;19912;-44
2023/06/15 09:05:33;;;;;;;;;;;21.70;87.30;;;;;;5115940;28;20354;-48
2023/06/15 09:08:00;;;;;;;;;;;21.70;87.30;;;;;;5116068;28;19915;-44
2023/06/15 09:10:25;;;;;;;;;;;21.70;87.20;;;;;;5116097;28;20395;-43
2023/06/15 09:12:52;;;;;;;;;;;21.70;87.10;;;;;;5116246;28;19995;-44
2023/06/15 09:15:19;;;;;;;;;;;21.70;87.40;;;;;;5116131;28;19908;-45
2023/06/15 09:17:44;;;;;;;;;;;21.70;87.20;;;;;;5116013;28;19922;-44
2023/06/15 09:20:10;;;;;;;;;;;21.70;87.40;;;;;;5116552;28;20261;-47
2023/06/15 09:22:40;;;;;;;;;;;21.70;87.70;;;;;;5115900;28;19953;-42
2023/06/15 09:25:12;;;;;;;;;;;21.70;86.90;;;;;;5116032;28;20235;-43
2023/06/15 09:27:38;;;;;;;;;;;21.70;86.90;;;;;;5115950;28;20239;-46
2023/06/15 09:30:05;;;;;;;;;;;21.70;87.50;;;;;;5115792;28;19915;-44
2023/06/15 09:32:30;;;;;;;;;;;21.70;87.10;;;;;;5115033;28;19908;-42
2023/06/15 09:34:59;;;;;;;;;;;21.70;87.10;;;;;;5115417;28;19907;-43
2023/06/15 09:37:28;;;;;;;;;;;21.70;87.00;;;;;;5115612;28;20304;-43
2023/06/15 09:39:53;;;;;;;;;;;21.70;86.70;;;;;;5115774;28;19912;-44
2023/06/15 09:42:26;;;;;;;;;;;21.70;86.50;;;;;;5115552;28;19935;-44
2023/06/15 09:44:58;;;;;;;;;;;21.70;86.80;;;;;;5115148;28;20431;-42
2023/06/15 09:47:28;;;;;;;;;;;21.70;86.80;;;;;;5115521;28;19920;-43
2023/06/15 09:49:53;;;;;;;;;;;21.70;87.50;;;;;;5115430;28;19908;-42
2023/06/15 09:52:20;;;;;;;;;;;21.70;87.50;;;;;;5115103;28;19931;-43
2023/06/15 09:54:46;;;;;;;;;;;21.70;87.60;;;;;;5115717;28;20447;-43
2023/06/15 09:57:12;;;;;;;;;;;21.70;87.80;;;;;;5115275;28;19911;-43
2023/06/15 09:59:37;;;;;;;;;;;21.70;87.30;;;;;;5115363;28;19916;-44
2023/06/15 10:02:04;;;;;;;;;;;21.70;87.00;;;;;;5115222;28;19938;-43
2023/06/15 10:04:31;;;;;;;;;;;21.70;87.40;;;;;;5096597;28;19908;-44
2023/06/15 10:07:04;;;;;;;;;;;21.70;87.40;;;;;;5114912;28;20007;-45
2023/06/15 10:09:35;;;;;;;;;;;21.70;87.40;;;;;;5114674;28;19998;-44
2023/06/15 10:12:05;;;;;;;;;;;21.70;87.80;;;;;;5114945;28;19915;-43
2023/06/15 10:14:31;;;;;;;;;;;21.70;88.10;;;;;;5114532;28;19907;-45
2023/06/15 10:17:08;;;;;;;;;;;21.80;87.70;;;;;;5115177;28;19922;-43
2023/06/15 10:19:41;;;;;;;;;;;21.70;87.80;;;;;;5096695;28;19919;-44
2023/06/15 10:22:08;;;;;;;;;;;21.70;86.90;;;;;;5114738;28;19907;-44
2023/06/15 10:24:34;;;;;;;;;;;21.70;86.90;;;;;;5114460;28;19908;-43
2023/06/15 10:27:00;;;;;;;;;;;21.70;87.00;;;;;;5114312;28;19915;-44
2023/06/15 10:29:26;;;;;;;;;;;21.80;87.70;;;;;;5114196;28;19952;-44
2023/06/15 10:32:06;;;;;;;;;;;21.80;88.10;;;;;;5114085;28;20256;-45
2023/06/15 10:34:34;;;;;;;;;;;21.80;88.00;;;;;;5114217;28;20247;-46
2023/06/15 10:37:18;;;;;;;;;;;21.80;87.70;;;;;;5113948;28;20015;-42
2023/06/15 10:39:44;;;;;;;;;;;21.80;87.80;;;;;;5114476;28;19911;-43
2023/06/15 10:42:14;;;;;;;;;;;21.80;87.20;;;;;;5114478;28;19919;-44
2023/06/15 10:44:39;;;;;;;;;;;21.80;87.00;;;;;;5113935;28;20495;-42
2023/06/15 10:47:12;;;;;;;;;;;21.70;86.90;;;;;;5096047;28;19924;-42
2023/06/15 10:49:48;;;;;;;;;;;21.80;86.70;;;;;;5114273;28;20355;-43
2023/06/15 10:52:14;;;;;;;;;;;21.70;86.90;;;;;;5114204;28;19914;-44
2023/06/15 10:54:39;;;;;;;;;;;21.80;87.20;;;;;;5114088;28;20002;-43
2023/06/15 10:57:06;;;;;;;;;;;21.80;87.40;;;;;;5113433;28;19956;-43
2023/06/15 10:59:41;;;;;;;;;;;21.80;87.90;;;;;;5113835;28;19912;-45
2023/06/15 11:02:25;;;;;;;;;;;21.80;87.60;;;;;;5114333;28;20389;-43
2023/06/15 11:04:54;;;;;;;;;;;21.80;87.30;;;;;;5113968;28;19943;-43
2023/06/15 11:07:29;;;;;;;;;;;21.80;87.20;;;;;;5113919;28;19907;-43
2023/06/15 11:10:00;;;;;;;;;;;21.80;87.30;;;;;;5113424;28;19907;-46
2023/06/15 11:12:32;;;;;;;;;;;21.80;86.90;;;;;;5114328;28;19968;-44
2023/06/15 11:14:59;;;;;;;;;;;21.80;86.90;;;;;;5113370;28;20259;-45
2023/06/15 11:17:27;;;;;;;;;;;21.70;87.10;;;;;;5113623;28;20002;-42
2023/06/15 11:19:52;;;;;;;;;;;21.80;87.20;;;;;;5113971;28;20018;-44
2023/06/15 11:22:27;;;;;;;;;;;21.80;87.20;;;;;;5114136;28;20267;-43
2023/06/15 11:24:53;;;;;;;;;;;21.80;87.00;;;;;;5113848;28;20258;-45
2023/06/15 11:27:20;;;;;;;;;;;21.80;87.30;;;;;;5095566;28;19915;-45
2023/06/15 11:29:46;;;;;;;;;;;21.80;87.20;;;;;;5095778;28;20270;-47
2023/06/15 11:32:11;;;;;;;;;;;21.80;87.20;;;;;;5114367;28;19908;-43
2023/06/15 11:34:38;;;;;;;;;;;21.80;87.30;;;;;;5113654;28;19912;-44
2023/06/15 11:37:03;;;;;;;;;;;21.80;87.90;;;;;;5113975;28;19916;-43
2023/06/15 11:39:29;;;;;;;;;;;21.80;88.20;;;;;;5113607;28;19916;-46
2023/06/15 11:41:56;;;;;;;;;;;21.80;88.40;;;;;;5113986;28;19940;-43
2023/06/15 11:44:23;;;;;;;;;;;21.80;88.40;;;;;;5113620;28;19908;-43
2023/06/15 11:46:53;;;;;;;;;;;21.80;88.50;;;;;;5113999;28;19926;-43
2023/06/15 11:49:18;;;;;;;;;;;21.80;88.50;;;;;;5114068;28;19908;-44
2023/06/15 11:51:47;;;;;;;;;;;21.80;88.60;;;;;;5113834;28;20014;-43
2023/06/15 11:54:13;;;;;;;;;;;21.80;88.70;;;;;;5113703;28;19907;-48
2023/06/15 11:56:45;;;;;;;;;;;21.80;88.80;;;;;;5113206;28;20006;-45
2023/06/15 11:59:12;;;;;;;;;;;21.80;88.60;;;;;;5113670;28;20287;-46
2023/06/15 12:01:37;;;;;;;;;;;21.70;88.50;;;;;;5113905;28;19908;-43
2023/06/15 12:04:10;;;;;;;;;;;21.80;88.70;;;;;;5113294;28;19908;-47
2023/06/15 12:06:35;;;;;;;;;;;21.80;88.70;;;;;;5113566;28;19908;-47
2023/06/15 12:09:02;;;;;;;;;;;21.80;88.80;;;;;;5097885;28;19908;-43
2023/06/15 12:11:27;;;;;;;;;;;21.80;88.60;;;;;;5117381;28;19925;-44
2023/06/15 12:13:58;;;;;;;;;;;21.80;88.00;;;;;;5116874;28;19998;-45
2023/06/15 12:16:24;;;;;;;;;;;21.70;87.90;;;;;;5116866;28;19912;-46
2023/06/15 12:18:53;;;;;;;;;;;21.80;87.70;;;;;;5117235;28;19956;-47
2023/06/15 12:21:18;;;;;;;;;;;21.80;87.60;;;;;;5117194;28;19914;-46
2023/06/15 12:23:48;;;;;;;;;;;21.70;87.70;;;;;;5116651;28;19924;-44
2023/06/15 12:26:16;;;;;;;;;;;21.70;87.80;;;;;;5116895;28;19947;-45
2023/06/15 12:28:41;;;;;;;;;;;21.80;88.10;;;;;;5116690;28;20340;-47
2023/06/15 12:31:10;;;;;;;;;;;21.80;88.00;;;;;;5116895;28;19919;-46
2023/06/15 12:33:39;;;;;;;;;;;21.80;87.80;;;;;;5116685;28;20316;-44
2023/06/15 12:36:11;;;;;;;;;;;21.80;88.00;;;;;;5116951;28;20403;-43
2023/06/15 12:38:37;;;;;;;;;;;21.80;88.20;;;;;;5116702;28;20341;-43
2023/06/15 12:41:03;;;;;;;;;;;21.70;88.00;;;;;;5116353;28;20014;-45
2023/06/15 12:43:30;;;;;;;;;;;21.80;87.90;;;;;;5116263;28;19943;-44
2023/06/15 12:45:55;;;;;;;;;;;21.70;87.60;;;;;;5116828;28;19912;-44
2023/06/15 12:48:22;;;;;;;;;;;21.80;87.80;;;;;;5116808;28;19920;-46
2023/06/15 12:50:47;;;;;;;;;;;21.80;87.50;;;;;;5116528;28;19912;-44
2023/06/15 12:53:13;;;;;;;;;;;21.80;87.60;;;;;;5116470;28;19993;-45
2023/06/15 12:55:38;;;;;;;;;;;21.80;87.80;;;;;;5098272;28;20322;-45
2023/06/15 12:58:04;;;;;;;;;;;21.70;87.70;;;;;;5116246;28;20255;-44
2023/06/15 13:00:29;;;;;;;;;;;21.70;87.20;;;;;;5116384;28;19943;-43
2023/06/15 13:02:55;;;;;;;;;;;21.80;86.70;;;;;;5116107;28;19908;-45
2023/06/15 13:05:21;;;;;;;;;;;21.80;86.70;;;;;;5115849;28;19907;-48
2023/06/15 13:07:47;;;;;;;;;;;21.70;86.70;;;;;;5115928;28;19918;-46
2023/06/15 13:10:13;;;;;;;;;;;21.80;87.40;;;;;;5115815;28;20030;-48
2023/06/15 13:12:38;;;;;;;;;;;21.80;88.00;;;;;;5115681;28;19951;-45
2023/06/15 13:15:05;;;;;;;;;;;21.80;88.00;;;;;;5115694;28;19916;-43
2023/06/15 13:17:31;;;;;;;;;;;21.80;87.80;;;;;;5115978;28;19919;-45
2023/06/15 13:19:57;;;;;;;;;;;21.80;87.90;;;;;;5115696;28;19961;-43
2023/06/15 13:22:22;;;;;;;;;;;21.80;88.10;;;;;;5097862;28;19908;-46
2023/06/15 13:24:48;;;;;;;;;;;21.80;88.80;;;;;;5115686;28;20346;-44
2023/06/15 13:27:13;;;;;;;;;;;21.80;88.00;;;;;;5115618;28;19970;-43
2023/06/15 13:29:39;;;;;;;;;;;21.80;87.70;;;;;;5115759;28;20006;-45
2023/06/15 13:32:05;;;;;;;;;;;21.80;87.80;;;;;;5115492;28;19908;-45
2023/06/15 13:34:31;;;;;;;;;;;21.80;88.20;;;;;;5115681;28;19930;-44
2023/06/15 13:36:56;;;;;;;;;;;21.80;88.40;;;;;;5115134;28;20466;-43
2023/06/15 13:39:22;;;;;;;;;;;21.80;88.60;;;;;;5115391;28;19947;-44
2023/06/15 13:41:47;;;;;;;;;;;21.80;88.50;;;;;;5097388;28;20338;-43
2023/06/15 13:44:13;;;;;;;;;;;21.80;88.50;;;;;;5115143;28;19952;-43
2023/06/15 13:46:39;;;;;;;;;;;21.80;88.60;;;;;;5115167;28;20365;-43
2023/06/15 13:49:06;;;;;;;;;;;21.80;88.70;;;;;;5115492;28;19999;-46
2023/06/15 13:51:31;;;;;;;;;;;21.80;88.50;;;;;;5115350;28;20358;-43
2023/06/15 13:53:57;;;;;;;;;;;21.80;88.50;;;;;;5115331;28;19919;-42
2023/06/15 13:56:24;;;;;;;;;;;21.80;88.60;;;;;;5115232;28;19964;-44
2023/06/15 13:58:50;;;;;;;;;;;21.80;88.70;;;;;;5115305;28;19943;-44
2023/06/15 14:01:15;;;;;;;;;;;21.80;88.80;;;;;;5114818;28;19915;-43
2023/06/15 14:03:41;;;;;;;;;;;21.80;88.80;;;;;;5115323;28;20016;-43
2023/06/15 14:06:07;;;;;;;;;;;21.80;88.90;;;;;;5115155;28;19918;-43
2023/06/15 14:08:32;;;;;;;;;;;21.80;88.90;;;;;;5115340;28;19908;-42
2023/06/15 14:10:57;;;;;;;;;;;21.80;88.90;;;;;;5114748;28;19915;-43